Weather at Cayo Coco Airport [CLOSED]

Public forecast

Using degrees Celsius for public forecast. Weather courtesy of forecast.io.

Closest aviation weather report (METAR) to Cayo Coco Airport

Closest report is Jardines Del Rey Airport, 10.6 nm (19.6 km) ESE.

2024/05/30 11:50 (retrieved 25 minutes ago)

MUCC 301150Z VRB01KT 9000 FEW020 28/26 Q1015

Closest aviation forecast (TAF) to Cayo Coco Airport

Closest forecast is Jardines Del Rey Airport, 10.6 nm (19.6 km) ESE.

2024/05/30 12:03 (retrieved 12 minutes ago)

TAF MUCC 301100Z 3012/3112 08007KT 9000 FEW020 BECMG 3014/3016 05011KT SCT020 BECMG 3101/3103 07007KT